sensor_id;sensor_type;location;lat;lon;timestamp;temperature;humidity
22321;DHT22;11328;53.928;18.522;2024-01-25T00:02:07;6.00;99.90
22321;DHT22;11328;53.928;18.522;2024-01-25T00:04:34;5.90;99.90
22321;DHT22;11328;53.928;18.522;2024-01-25T00:07:01;5.90;99.90
22321;DHT22;11328;53.928;18.522;2024-01-25T00:09:28;6.00;99.90
22321;DHT22;11328;53.928;18.522;2024-01-25T00:11:56;6.00;99.90
22321;DHT22;11328;53.928;18.522;2024-01-25T00:14:23;6.10;99.90
22321;DHT22;11328;53.928;18.522;2024-01-25T00:16:50;6.10;99.90
22321;DHT22;11328;53.928;18.522;2024-01-25T00:19:18;6.10;99.90
22321;DHT22;11328;53.928;18.522;2024-01-25T00:21:45;6.00;99.90
22321;DHT22;11328;53.928;18.522;2024-01-25T00:24:13;6.10;99.90
22321;DHT22;11328;53.928;18.522;2024-01-25T00:26:40;6.10;99.90
22321;DHT22;11328;53.928;18.522;2024-01-25T00:29:08;6.10;99.90
22321;DHT22;11328;53.928;18.522;2024-01-25T00:31:35;6.10;99.90
22321;DHT22;11328;53.928;18.522;2024-01-25T00:34:02;6.10;99.90
22321;DHT22;11328;53.928;18.522;2024-01-25T00:36:30;6.10;99.90
22321;DHT22;11328;53.928;18.522;2024-01-25T00:38:57;6.00;99.90
22321;DHT22;11328;53.928;18.522;2024-01-25T00:41:25;6.10;99.90
22321;DHT22;11328;53.928;18.522;2024-01-25T00:43:54;6.10;99.90
22321;DHT22;11328;53.928;18.522;2024-01-25T00:46:21;6.00;99.90
22321;DHT22;11328;53.928;18.522;2024-01-25T00:48:48;6.10;99.90
22321;DHT22;11328;53.928;18.522;2024-01-25T00:51:21;6.00;99.90
22321;DHT22;11328;53.928;18.522;2024-01-25T00:53:50;6.10;99.90
22321;DHT22;11328;53.928;18.522;2024-01-25T00:56:17;6.00;99.90
22321;DHT22;11328;53.928;18.522;2024-01-25T00:58:45;6.10;99.90
22321;DHT22;11328;53.928;18.522;2024-01-25T01:01:12;6.10;99.90
22321;DHT22;11328;53.928;18.522;2024-01-25T01:03:40;6.10;99.90
22321;DHT22;11328;53.928;18.522;2024-01-25T01:06:08;6.00;99.90
22321;DHT22;11328;53.928;18.522;2024-01-25T01:08:36;6.00;99.90
22321;DHT22;11328;53.928;18.522;2024-01-25T01:11:04;6.10;99.90
22321;DHT22;11328;53.928;18.522;2024-01-25T01:13:31;6.00;99.90
22321;DHT22;11328;53.928;18.522;2024-01-25T01:15:58;6.10;99.90
22321;DHT22;11328;53.928;18.522;2024-01-25T01:18:25;6.00;99.90
22321;DHT22;11328;53.928;18.522;2024-01-25T01:20:53;6.00;99.90
22321;DHT22;11328;53.928;18.522;2024-01-25T01:23:20;6.10;99.90
22321;DHT22;11328;53.928;18.522;2024-01-25T01:25:47;6.10;99.90
22321;DHT22;11328;53.928;18.522;2024-01-25T01:28:14;6.10;99.90
22321;DHT22;11328;53.928;18.522;2024-01-25T01:30:41;6.00;99.90
22321;DHT22;11328;53.928;18.522;2024-01-25T01:33:09;6.10;99.90
22321;DHT22;11328;53.928;18.522;2024-01-25T01:35:36;6.10;99.90
22321;DHT22;11328;53.928;18.522;2024-01-25T01:38:03;6.10;99.90
22321;DHT22;11328;53.928;18.522;2024-01-25T01:40:31;6.10;99.90
22321;DHT22;11328;53.928;18.522;2024-01-25T01:43:01;6.10;99.90
22321;DHT22;11328;53.928;18.522;2024-01-25T01:45:29;6.10;99.90
22321;DHT22;11328;53.928;18.522;2024-01-25T01:47:58;6.10;99.90
22321;DHT22;11328;53.928;18.522;2024-01-25T01:50:27;6.10;99.90
22321;DHT22;11328;53.928;18.522;2024-01-25T01:52:55;6.10;99.90
22321;DHT22;11328;53.928;18.522;2024-01-25T01:55:22;6.00;99.90
22321;DHT22;11328;53.928;18.522;2024-01-25T01:57:50;6.10;99.90
22321;DHT22;11328;53.928;18.522;2024-01-25T02:00:18;6.00;99.90
22321;DHT22;11328;53.928;18.522;2024-01-25T02:02:47;6.10;99.90
22321;DHT22;11328;53.928;18.522;2024-01-25T02:05:14;6.10;99.90
22321;DHT22;11328;53.928;18.522;2024-01-25T02:07:42;6.20;99.90
22321;DHT22;11328;53.928;18.522;2024-01-25T02:10:10;6.10;99.90
22321;DHT22;11328;53.928;18.522;2024-01-25T02:12:38;6.00;99.90
22321;DHT22;11328;53.928;18.522;2024-01-25T02:15:05;6.10;99.90
22321;DHT22;11328;53.928;18.522;2024-01-25T02:17:32;6.10;99.90
22321;DHT22;11328;53.928;18.522;2024-01-25T02:20:00;6.10;99.90
22321;DHT22;11328;53.928;18.522;2024-01-25T02:22:29;6.00;99.90
22321;DHT22;11328;53.928;18.522;2024-01-25T02:24:58;6.10;99.90
22321;DHT22;11328;53.928;18.522;2024-01-25T02:27:25;6.10;99.90
22321;DHT22;11328;53.928;18.522;2024-01-25T02:29:53;6.10;99.90
22321;DHT22;11328;53.928;18.522;2024-01-25T02:32:19;6.20;99.90
22321;DHT22;11328;53.928;18.522;2024-01-25T02:34:47;6.10;99.90
22321;DHT22;11328;53.928;18.522;2024-01-25T02:37:14;6.10;99.90
22321;DHT22;11328;53.928;18.522;2024-01-25T02:39:41;6.00;99.90
22321;DHT22;11328;53.928;18.522;2024-01-25T02:42:09;6.10;99.90
22321;DHT22;11328;53.928;18.522;2024-01-25T02:44:36;6.10;99.90
22321;DHT22;11328;53.928;18.522;2024-01-25T02:47:03;6.10;99.90
22321;DHT22;11328;53.928;18.522;2024-01-25T02:49:30;6.10;99.90
22321;DHT22;11328;53.928;18.522;2024-01-25T02:51:57;6.10;99.90
22321;DHT22;11328;53.928;18.522;2024-01-25T02:54:24;6.00;99.90
22321;DHT22;11328;53.928;18.522;2024-01-25T02:56:51;6.00;99.90
22321;DHT22;11328;53.928;18.522;2024-01-25T02:59:18;6.00;99.90
22321;DHT22;11328;53.928;18.522;2024-01-25T03:01:46;6.10;99.90
22321;DHT22;11328;53.928;18.522;2024-01-25T03:04:14;6.10;99.90
22321;DHT22;11328;53.928;18.522;2024-01-25T03:06:41;6.10;99.90
22321;DHT22;11328;53.928;18.522;2024-01-25T03:09:08;6.10;99.90
22321;DHT22;11328;53.928;18.522;2024-01-25T03:11:35;6.20;99.90
22321;DHT22;11328;53.928;18.522;2024-01-25T03:14:02;6.20;99.90
22321;DHT22;11328;53.928;18.522;2024-01-25T03:16:29;6.20;99.90
22321;DHT22;11328;53.928;18.522;2024-01-25T03:18:57;6.10;99.90
22321;DHT22;11328;53.928;18.522;2024-01-25T03:21:24;6.10;99.90
22321;DHT22;11328;53.928;18.522;2024-01-25T03:23:51;6.10;99.90
22321;DHT22;11328;53.928;18.522;2024-01-25T03:26:18;6.10;99.90
22321;DHT22;11328;53.928;18.522;2024-01-25T03:28:45;6.10;99.90
22321;DHT22;11328;53.928;18.522;2024-01-25T03:31:12;6.10;99.90
22321;DHT22;11328;53.928;18.522;2024-01-25T03:33:39;6.00;99.90
22321;DHT22;11328;53.928;18.522;2024-01-25T03:36:07;6.00;99.90
22321;DHT22;11328;53.928;18.522;2024-01-25T03:38:34;6.10;99.90
22321;DHT22;11328;53.928;18.522;2024-01-25T03:41:01;6.00;99.90
22321;DHT22;11328;53.928;18.522;2024-01-25T03:43:28;6.10;99.90
22321;DHT22;11328;53.928;18.522;2024-01-25T03:46:08;6.20;99.90
22321;DHT22;11328;53.928;18.522;2024-01-25T03:48:35;6.20;99.90
22321;DHT22;11328;53.928;18.522;2024-01-25T03:51:02;6.00;99.90
22321;DHT22;11328;53.928;18.522;2024-01-25T03:53:30;6.10;99.90
22321;DHT22;11328;53.928;18.522;2024-01-25T03:55:57;6.00;99.90
22321;DHT22;11328;53.928;18.522;2024-01-25T03:58:24;6.10;99.90
22321;DHT22;11328;53.928;18.522;2024-01-25T04:00:51;6.00;99.90
22321;DHT22;11328;53.928;18.522;2024-01-25T04:03:18;6.00;99.90
22321;DHT22;11328;53.928;18.522;2024-01-25T04:05:45;6.00;99.90
22321;DHT22;11328;53.928;18.522;2024-01-25T04:08:15;6.00;99.90
22321;DHT22;11328;53.928;18.522;2024-01-25T04:10:42;6.00;99.90
22321;DHT22;11328;53.928;18.522;2024-01-25T04:13:09;6.00;99.90
22321;DHT22;11328;53.928;18.522;2024-01-25T04:15:36;5.80;99.90
22321;DHT22;11328;53.928;18.522;2024-01-25T04:18:03;5.90;99.90
22321;DHT22;11328;53.928;18.522;2024-01-25T04:20:31;5.90;99.90
22321;DHT22;11328;53.928;18.522;2024-01-25T04:23:01;5.90;99.90
22321;DHT22;11328;53.928;18.522;2024-01-25T04:25:29;5.80;99.90
22321;DHT22;11328;53.928;18.522;2024-01-25T04:27:59;5.90;99.90
22321;DHT22;11328;53.928;18.522;2024-01-25T04:30:27;5.90;99.90
22321;DHT22;11328;53.928;18.522;2024-01-25T04:32:54;5.90;99.90
22321;DHT22;11328;53.928;18.522;2024-01-25T04:35:21;5.90;99.90
22321;DHT22;11328;53.928;18.522;2024-01-25T04:37:48;5.90;99.90
22321;DHT22;11328;53.928;18.522;2024-01-25T04:40:15;5.90;99.90
22321;DHT22;11328;53.928;18.522;2024-01-25T04:42:43;5.90;99.90
22321;DHT22;11328;53.928;18.522;2024-01-25T04:45:10;5.90;99.90
22321;DHT22;11328;53.928;18.522;2024-01-25T04:47:38;5.90;99.90
22321;DHT22;11328;53.928;18.522;2024-01-25T04:50:06;5.90;99.90
22321;DHT22;11328;53.928;18.522;2024-01-25T04:52:34;6.00;99.90
22321;DHT22;11328;53.928;18.522;2024-01-25T04:55:01;6.00;99.90
22321;DHT22;11328;53.928;18.522;2024-01-25T04:57:28;5.90;99.90
22321;DHT22;11328;53.928;18.522;2024-01-25T04:59:56;5.80;99.90
22321;DHT22;11328;53.928;18.522;2024-01-25T05:02:23;5.80;99.90
22321;DHT22;11328;53.928;18.522;2024-01-25T05:04:50;5.80;99.90
22321;DHT22;11328;53.928;18.522;2024-01-25T05:07:17;5.80;99.90
22321;DHT22;11328;53.928;18.522;2024-01-25T05:09:44;5.80;99.90
22321;DHT22;11328;53.928;18.522;2024-01-25T05:12:11;5.80;99.90
22321;DHT22;11328;53.928;18.522;2024-01-25T05:14:38;5.90;99.90
22321;DHT22;11328;53.928;18.522;2024-01-25T05:17:06;5.80;99.90
22321;DHT22;11328;53.928;18.522;2024-01-25T05:19:33;5.70;99.90
22321;DHT22;11328;53.928;18.522;2024-01-25T05:22:00;5.70;99.90
22321;DHT22;11328;53.928;18.522;2024-01-25T05:24:28;5.70;99.90
22321;DHT22;11328;53.928;18.522;2024-01-25T05:26:55;5.70;99.90
22321;DHT22;11328;53.928;18.522;2024-01-25T05:29:23;5.70;99.90
22321;DHT22;11328;53.928;18.522;2024-01-25T05:31:50;5.80;99.90
22321;DHT22;11328;53.928;18.522;2024-01-25T05:34:17;5.60;99.90
22321;DHT22;11328;53.928;18.522;2024-01-25T05:36:44;5.60;99.90
22321;DHT22;11328;53.928;18.522;2024-01-25T05:39:11;5.70;99.90
22321;DHT22;11328;53.928;18.522;2024-01-25T05:41:39;5.60;99.90
22321;DHT22;11328;53.928;18.522;2024-01-25T05:44:06;5.70;99.90
22321;DHT22;11328;53.928;18.522;2024-01-25T05:46:33;5.60;99.90
22321;DHT22;11328;53.928;18.522;2024-01-25T05:49:00;5.60;99.90
22321;DHT22;11328;53.928;18.522;2024-01-25T05:51:27;5.60;99.90
22321;DHT22;11328;53.928;18.522;2024-01-25T05:53:55;5.60;99.90
22321;DHT22;11328;53.928;18.522;2024-01-25T05:56:23;5.60;99.90
22321;DHT22;11328;53.928;18.522;2024-01-25T05:58:50;5.60;99.90
22321;DHT22;11328;53.928;18.522;2024-01-25T06:01:17;5.60;99.90
22321;DHT22;11328;53.928;18.522;2024-01-25T06:03:44;5.60;99.90
22321;DHT22;11328;53.928;18.522;2024-01-25T06:06:11;5.80;99.90
22321;DHT22;11328;53.928;18.522;2024-01-25T06:08:38;5.70;99.90
22321;DHT22;11328;53.928;18.522;2024-01-25T06:11:06;5.70;99.90
22321;DHT22;11328;53.928;18.522;2024-01-25T06:13:32;5.70;99.90
22321;DHT22;11328;53.928;18.522;2024-01-25T06:15:59;5.60;99.90
22321;DHT22;11328;53.928;18.522;2024-01-25T06:18:27;5.60;99.90
22321;DHT22;11328;53.928;18.522;2024-01-25T06:20:54;5.60;99.90
22321;DHT22;11328;53.928;18.522;2024-01-25T06:23:21;5.70;99.90
22321;DHT22;11328;53.928;18.522;2024-01-25T06:25:48;5.70;99.90
22321;DHT22;11328;53.928;18.522;2024-01-25T06:28:16;5.70;99.90
22321;DHT22;11328;53.928;18.522;2024-01-25T06:30:44;5.70;99.90
22321;DHT22;11328;53.928;18.522;2024-01-25T06:33:11;5.60;99.90
22321;DHT22;11328;53.928;18.522;2024-01-25T06:35:39;5.60;99.90
22321;DHT22;11328;53.928;18.522;2024-01-25T06:38:06;5.70;99.90
22321;DHT22;11328;53.928;18.522;2024-01-25T06:40:33;5.60;99.90
22321;DHT22;11328;53.928;18.522;2024-01-25T06:43:00;5.60;99.90
22321;DHT22;11328;53.928;18.522;2024-01-25T06:45:27;5.70;99.90
22321;DHT22;11328;53.928;18.522;2024-01-25T06:47:53;5.70;99.90
22321;DHT22;11328;53.928;18.522;2024-01-25T06:50:20;5.70;99.90
22321;DHT22;11328;53.928;18.522;2024-01-25T06:52:47;5.70;99.90
22321;DHT22;11328;53.928;18.522;2024-01-25T06:55:15;5.60;99.90
22321;DHT22;11328;53.928;18.522;2024-01-25T06:57:42;5.60;99.90
22321;DHT22;11328;53.928;18.522;2024-01-25T07:00:10;5.60;99.90
22321;DHT22;11328;53.928;18.522;2024-01-25T07:02:40;5.60;99.90
22321;DHT22;11328;53.928;18.522;2024-01-25T07:05:08;5.60;99.90
22321;DHT22;11328;53.928;18.522;2024-01-25T07:07:35;5.60;99.90
22321;DHT22;11328;53.928;18.522;2024-01-25T07:10:06;5.60;99.90
22321;DHT22;11328;53.928;18.522;2024-01-25T07:12:33;5.60;99.90
22321;DHT22;11328;53.928;18.522;2024-01-25T07:15:01;5.70;99.90
22321;DHT22;11328;53.928;18.522;2024-01-25T07:17:28;5.70;99.90
22321;DHT22;11328;53.928;18.522;2024-01-25T07:19:55;5.60;99.90
22321;DHT22;11328;53.928;18.522;2024-01-25T07:22:23;5.60;99.90
22321;DHT22;11328;53.928;18.522;2024-01-25T07:24:50;5.70;99.90
22321;DHT22;11328;53.928;18.522;2024-01-25T07:27:17;5.70;99.90
22321;DHT22;11328;53.928;18.522;2024-01-25T07:29:44;5.70;99.90
22321;DHT22;11328;53.928;18.522;2024-01-25T07:32:12;5.80;99.90
22321;DHT22;11328;53.928;18.522;2024-01-25T07:34:39;5.70;99.90
22321;DHT22;11328;53.928;18.522;2024-01-25T07:37:06;5.80;99.90
22321;DHT22;11328;53.928;18.522;2024-01-25T07:39:33;5.80;99.90
22321;DHT22;11328;53.928;18.522;2024-01-25T07:42:00;5.80;99.90
22321;DHT22;11328;53.928;18.522;2024-01-25T07:44:27;5.80;99.90
22321;DHT22;11328;53.928;18.522;2024-01-25T07:46:55;5.90;99.90
22321;DHT22;11328;53.928;18.522;2024-01-25T07:49:21;5.90;99.90
22321;DHT22;11328;53.928;18.522;2024-01-25T07:51:49;5.90;99.90
22321;DHT22;11328;53.928;18.522;2024-01-25T07:54:16;5.90;99.90
22321;DHT22;11328;53.928;18.522;2024-01-25T07:56:43;6.00;99.90
22321;DHT22;11328;53.928;18.522;2024-01-25T07:59:10;6.00;99.90
22321;DHT22;11328;53.928;18.522;2024-01-25T08:01:37;6.10;99.90
22321;DHT22;11328;53.928;18.522;2024-01-25T08:04:04;6.00;99.90
22321;DHT22;11328;53.928;18.522;2024-01-25T08:06:31;6.00;99.90
22321;DHT22;11328;53.928;18.522;2024-01-25T08:08:59;6.00;99.90
22321;DHT22;11328;53.928;18.522;2024-01-25T08:11:26;6.00;99.90
22321;DHT22;11328;53.928;18.522;2024-01-25T08:13:53;6.10;99.90
22321;DHT22;11328;53.928;18.522;2024-01-25T08:16:20;6.00;99.90
22321;DHT22;11328;53.928;18.522;2024-01-25T08:18:48;6.10;99.90
22321;DHT22;11328;53.928;18.522;2024-01-25T08:21:16;6.10;99.90
22321;DHT22;11328;53.928;18.522;2024-01-25T08:23:44;6.10;99.90
22321;DHT22;11328;53.928;18.522;2024-01-25T08:26:11;6.10;99.90
22321;DHT22;11328;53.928;18.522;2024-01-25T08:28:40;6.20;99.90
22321;DHT22;11328;53.928;18.522;2024-01-25T08:31:08;6.10;99.90
22321;DHT22;11328;53.928;18.522;2024-01-25T08:33:35;6.10;99.90
22321;DHT22;11328;53.928;18.522;2024-01-25T08:36:03;6.20;99.90
22321;DHT22;11328;53.928;18.522;2024-01-25T08:38:30;6.10;99.90
22321;DHT22;11328;53.928;18.522;2024-01-25T08:40:57;6.10;99.90
22321;DHT22;11328;53.928;18.522;2024-01-25T08:43:25;6.00;99.90
22321;DHT22;11328;53.928;18.522;2024-01-25T08:45:52;6.10;99.90
22321;DHT22;11328;53.928;18.522;2024-01-25T08:48:19;6.20;99.90
22321;DHT22;11328;53.928;18.522;2024-01-25T08:50:46;6.20;99.90
22321;DHT22;11328;53.928;18.522;2024-01-25T08:53:16;6.20;99.90
22321;DHT22;11328;53.928;18.522;2024-01-25T08:55:43;6.20;99.90
22321;DHT22;11328;53.928;18.522;2024-01-25T08:58:10;6.20;99.90
22321;DHT22;11328;53.928;18.522;2024-01-25T09:00:37;6.20;99.90
22321;DHT22;11328;53.928;18.522;2024-01-25T09:03:04;6.20;99.90
22321;DHT22;11328;53.928;18.522;2024-01-25T09:05:32;6.10;99.90
22321;DHT22;11328;53.928;18.522;2024-01-25T09:08:01;6.20;99.90
22321;DHT22;11328;53.928;18.522;2024-01-25T09:10:28;6.30;99.90
22321;DHT22;11328;53.928;18.522;2024-01-25T09:12:55;6.20;99.90
22321;DHT22;11328;53.928;18.522;2024-01-25T09:15:22;6.20;99.90
22321;DHT22;11328;53.928;18.522;2024-01-25T09:17:49;6.20;99.90
22321;DHT22;11328;53.928;18.522;2024-01-25T09:20:16;6.10;99.90
22321;DHT22;11328;53.928;18.522;2024-01-25T09:22:44;6.10;99.90
22321;DHT22;11328;53.928;18.522;2024-01-25T09:25:12;6.00;99.90
22321;DHT22;11328;53.928;18.522;2024-01-25T09:27:40;5.70;99.90
22321;DHT22;11328;53.928;18.522;2024-01-25T09:30:07;5.70;99.90
22321;DHT22;11328;53.928;18.522;2024-01-25T09:32:35;5.60;99.90
22321;DHT22;11328;53.928;18.522;2024-01-25T09:35:02;5.50;99.90
22321;DHT22;11328;53.928;18.522;2024-01-25T09:37:30;5.50;99.90
22321;DHT22;11328;53.928;18.522;2024-01-25T09:39:58;5.50;99.90
22321;DHT22;11328;53.928;18.522;2024-01-25T09:42:26;5.50;99.90
22321;DHT22;11328;53.928;18.522;2024-01-25T09:44:54;5.50;99.90
22321;DHT22;11328;53.928;18.522;2024-01-25T09:47:21;5.40;99.90
22321;DHT22;11328;53.928;18.522;2024-01-25T09:49:49;5.40;99.90
22321;DHT22;11328;53.928;18.522;2024-01-25T09:52:18;5.40;99.90
22321;DHT22;11328;53.928;18.522;2024-01-25T09:54:46;5.50;99.90
22321;DHT22;11328;53.928;18.522;2024-01-25T09:57:21;5.40;99.90
22321;DHT22;11328;53.928;18.522;2024-01-25T09:59:50;5.10;99.90
22321;DHT22;11328;53.928;18.522;2024-01-25T10:02:17;5.10;99.90
22321;DHT22;11328;53.928;18.522;2024-01-25T10:04:49;5.20;99.90
22321;DHT22;11328;53.928;18.522;2024-01-25T10:10:09;5.10;99.90
22321;DHT22;11328;53.928;18.522;2024-01-25T10:12:38;5.10;99.90
22321;DHT22;11328;53.928;18.522;2024-01-25T10:15:07;5.00;99.90
22321;DHT22;11328;53.928;18.522;2024-01-25T10:17:34;5.00;99.90
22321;DHT22;11328;53.928;18.522;2024-01-25T10:20:22;5.20;99.90
22321;DHT22;11328;53.928;18.522;2024-01-25T10:22:52;5.10;99.90
22321;DHT22;11328;53.928;18.522;2024-01-25T10:25:25;5.20;99.90
22321;DHT22;11328;53.928;18.522;2024-01-25T10:27:52;5.20;99.90
22321;DHT22;11328;53.928;18.522;2024-01-25T10:30:19;5.30;99.90
22321;DHT22;11328;53.928;18.522;2024-01-25T10:32:47;5.20;99.90
22321;DHT22;11328;53.928;18.522;2024-01-25T10:35:18;5.20;99.90
22321;DHT22;11328;53.928;18.522;2024-01-25T10:37:51;5.10;99.90
22321;DHT22;11328;53.928;18.522;2024-01-25T10:40:20;5.10;99.90
22321;DHT22;11328;53.928;18.522;2024-01-25T10:42:48;5.00;99.90
22321;DHT22;11328;53.928;18.522;2024-01-25T10:45:16;5.10;99.90
22321;DHT22;11328;53.928;18.522;2024-01-25T10:47:44;5.20;99.90
22321;DHT22;11328;53.928;18.522;2024-01-25T10:50:15;5.20;99.90
22321;DHT22;11328;53.928;18.522;2024-01-25T10:52:43;5.30;99.90
22321;DHT22;11328;53.928;18.522;2024-01-25T10:55:11;5.30;99.90
22321;DHT22;11328;53.928;18.522;2024-01-25T10:57:42;5.20;99.90
22321;DHT22;11328;53.928;18.522;2024-01-25T11:00:12;5.20;99.90
22321;DHT22;11328;53.928;18.522;2024-01-25T11:02:41;5.30;99.90
22321;DHT22;11328;53.928;18.522;2024-01-25T11:05:14;5.30;99.90
22321;DHT22;11328;53.928;18.522;2024-01-25T11:07:48;5.30;99.90
22321;DHT22;11328;53.928;18.522;2024-01-25T11:10:21;5.20;99.90
22321;DHT22;11328;53.928;18.522;2024-01-25T11:12:56;5.20;99.90
22321;DHT22;11328;53.928;18.522;2024-01-25T11:15:33;5.10;99.90
22321;DHT22;11328;53.928;18.522;2024-01-25T11:18:03;5.00;99.90
22321;DHT22;11328;53.928;18.522;2024-01-25T11:20:36;5.00;99.90
22321;DHT22;11328;53.928;18.522;2024-01-25T11:23:05;4.90;99.90
22321;DHT22;11328;53.928;18.522;2024-01-25T11:25:36;5.00;99.90
22321;DHT22;11328;53.928;18.522;2024-01-25T11:28:05;4.90;99.90
22321;DHT22;11328;53.928;18.522;2024-01-25T11:30:33;4.90;99.90
22321;DHT22;11328;53.928;18.522;2024-01-25T11:33:04;4.90;99.90
22321;DHT22;11328;53.928;18.522;2024-01-25T11:35:33;4.90;99.90
22321;DHT22;11328;53.928;18.522;2024-01-25T11:38:02;5.00;99.90
22321;DHT22;11328;53.928;18.522;2024-01-25T11:40:29;5.00;99.90
22321;DHT22;11328;53.928;18.522;2024-01-25T11:43:05;5.00;99.90
22321;DHT22;11328;53.928;18.522;2024-01-25T11:45:38;4.90;99.90
22321;DHT22;11328;53.928;18.522;2024-01-25T11:48:10;4.80;99.90
22321;DHT22;11328;53.928;18.522;2024-01-25T11:50:38;5.00;99.90
22321;DHT22;11328;53.928;18.522;2024-01-25T11:53:05;5.00;99.90
22321;DHT22;11328;53.928;18.522;2024-01-25T11:55:32;5.10;99.90
22321;DHT22;11328;53.928;18.522;2024-01-25T11:57:59;5.10;99.90
22321;DHT22;11328;53.928;18.522;2024-01-25T12:00:27;5.10;99.90
22321;DHT22;11328;53.928;18.522;2024-01-25T12:02:55;5.10;99.90
22321;DHT22;11328;53.928;18.522;2024-01-25T12:05:22;5.00;99.90
22321;DHT22;11328;53.928;18.522;2024-01-25T12:07:49;5.10;99.90
22321;DHT22;11328;53.928;18.522;2024-01-25T12:10:17;5.10;99.90
22321;DHT22;11328;53.928;18.522;2024-01-25T12:12:45;5.00;99.90
22321;DHT22;11328;53.928;18.522;2024-01-25T12:15:12;4.90;99.90
22321;DHT22;11328;53.928;18.522;2024-01-25T12:17:39;4.90;99.90
22321;DHT22;11328;53.928;18.522;2024-01-25T12:20:07;4.80;99.90
22321;DHT22;11328;53.928;18.522;2024-01-25T12:22:38;4.70;99.90
22321;DHT22;11328;53.928;18.522;2024-01-25T12:25:09;4.80;99.90
22321;DHT22;11328;53.928;18.522;2024-01-25T12:27:39;4.80;99.90
22321;DHT22;11328;53.928;18.522;2024-01-25T12:30:13;4.80;99.90
22321;DHT22;11328;53.928;18.522;2024-01-25T12:32:40;4.80;99.90
22321;DHT22;11328;53.928;18.522;2024-01-25T12:35:08;4.70;99.90
22321;DHT22;11328;53.928;18.522;2024-01-25T12:37:36;4.70;99.90
22321;DHT22;11328;53.928;18.522;2024-01-25T12:40:05;4.80;99.90
22321;DHT22;11328;53.928;18.522;2024-01-25T12:42:33;4.90;99.90
22321;DHT22;11328;53.928;18.522;2024-01-25T12:45:00;4.90;99.90
22321;DHT22;11328;53.928;18.522;2024-01-25T12:47:27;4.70;99.90
22321;DHT22;11328;53.928;18.522;2024-01-25T12:49:55;4.70;99.90
22321;DHT22;11328;53.928;18.522;2024-01-25T12:52:22;4.60;99.90
22321;DHT22;11328;53.928;18.522;2024-01-25T12:54:49;4.60;99.90
22321;DHT22;11328;53.928;18.522;2024-01-25T12:57:17;4.60;99.90
22321;DHT22;11328;53.928;18.522;2024-01-25T12:59:44;4.60;99.90
22321;DHT22;11328;53.928;18.522;2024-01-25T13:02:13;4.70;99.90
22321;DHT22;11328;53.928;18.522;2024-01-25T13:04:41;4.70;99.90
22321;DHT22;11328;53.928;18.522;2024-01-25T13:07:08;4.80;99.90
22321;DHT22;11328;53.928;18.522;2024-01-25T13:09:35;4.80;99.90
22321;DHT22;11328;53.928;18.522;2024-01-25T13:12:04;4.90;99.90
22321;DHT22;11328;53.928;18.522;2024-01-25T13:14:31;4.90;99.90
22321;DHT22;11328;53.928;18.522;2024-01-25T13:16:59;4.80;99.90
22321;DHT22;11328;53.928;18.522;2024-01-25T13:19:26;4.90;99.90
22321;DHT22;11328;53.928;18.522;2024-01-25T13:21:53;4.90;99.90
22321;DHT22;11328;53.928;18.522;2024-01-25T13:24:21;4.80;99.90
22321;DHT22;11328;53.928;18.522;2024-01-25T13:26:48;4.90;99.90
22321;DHT22;11328;53.928;18.522;2024-01-25T13:29:15;5.00;99.90
22321;DHT22;11328;53.928;18.522;2024-01-25T13:31:42;5.00;99.90
22321;DHT22;11328;53.928;18.522;2024-01-25T13:34:09;5.00;99.90
22321;DHT22;11328;53.928;18.522;2024-01-25T13:36:37;5.00;99.90
22321;DHT22;11328;53.928;18.522;2024-01-25T13:39:04;4.90;99.90
22321;DHT22;11328;53.928;18.522;2024-01-25T13:41:31;4.80;99.90
22321;DHT22;11328;53.928;18.522;2024-01-25T13:43:58;4.70;99.90
22321;DHT22;11328;53.928;18.522;2024-01-25T13:46:26;4.80;99.90
22321;DHT22;11328;53.928;18.522;2024-01-25T13:48:55;4.80;99.90
22321;DHT22;11328;53.928;18.522;2024-01-25T13:51:22;4.90;99.90
22321;DHT22;11328;53.928;18.522;2024-01-25T13:53:50;5.00;99.90
22321;DHT22;11328;53.928;18.522;2024-01-25T13:56:17;5.00;99.90
22321;DHT22;11328;53.928;18.522;2024-01-25T13:58:45;5.00;99.90
22321;DHT22;11328;53.928;18.522;2024-01-25T14:01:12;4.80;99.90
22321;DHT22;11328;53.928;18.522;2024-01-25T14:03:39;5.00;99.90
22321;DHT22;11328;53.928;18.522;2024-01-25T14:06:11;5.10;99.90
22321;DHT22;11328;53.928;18.522;2024-01-25T14:08:38;5.00;99.90
22321;DHT22;11328;53.928;18.522;2024-01-25T14:11:05;5.10;99.90
22321;DHT22;11328;53.928;18.522;2024-01-25T14:13:33;4.90;99.90
22321;DHT22;11328;53.928;18.522;2024-01-25T14:16:01;5.00;99.90
22321;DHT22;11328;53.928;18.522;2024-01-25T14:18:28;5.10;99.90
22321;DHT22;11328;53.928;18.522;2024-01-25T14:20:59;5.10;99.90
22321;DHT22;11328;53.928;18.522;2024-01-25T14:23:26;5.20;99.90
22321;DHT22;11328;53.928;18.522;2024-01-25T14:25:55;5.10;99.90
22321;DHT22;11328;53.928;18.522;2024-01-25T14:28:22;5.10;99.90
22321;DHT22;11328;53.928;18.522;2024-01-25T14:30:49;5.10;99.90
22321;DHT22;11328;53.928;18.522;2024-01-25T14:33:17;5.10;99.90
22321;DHT22;11328;53.928;18.522;2024-01-25T14:35:44;5.10;99.90
22321;DHT22;11328;53.928;18.522;2024-01-25T14:38:11;4.90;99.90
22321;DHT22;11328;53.928;18.522;2024-01-25T14:40:39;4.90;99.90
22321;DHT22;11328;53.928;18.522;2024-01-25T14:43:23;4.90;99.90
22321;DHT22;11328;53.928;18.522;2024-01-25T14:45:50;4.90;99.90
22321;DHT22;11328;53.928;18.522;2024-01-25T14:48:19;4.90;99.90
22321;DHT22;11328;53.928;18.522;2024-01-25T14:50:46;4.80;99.90
22321;DHT22;11328;53.928;18.522;2024-01-25T14:53:13;4.60;99.90
22321;DHT22;11328;53.928;18.522;2024-01-25T14:55:40;4.60;99.90
22321;DHT22;11328;53.928;18.522;2024-01-25T14:58:08;4.50;99.90
22321;DHT22;11328;53.928;18.522;2024-01-25T15:00:36;4.50;99.90
22321;DHT22;11328;53.928;18.522;2024-01-25T15:03:04;4.50;99.90
22321;DHT22;11328;53.928;18.522;2024-01-25T15:05:32;4.50;99.90
22321;DHT22;11328;53.928;18.522;2024-01-25T15:07:59;4.40;99.90
22321;DHT22;11328;53.928;18.522;2024-01-25T15:10:26;4.50;99.90
22321;DHT22;11328;53.928;18.522;2024-01-25T15:12:53;4.40;99.90
22321;DHT22;11328;53.928;18.522;2024-01-25T15:15:21;4.50;99.90
22321;DHT22;11328;53.928;18.522;2024-01-25T15:17:48;4.50;99.90
22321;DHT22;11328;53.928;18.522;2024-01-25T15:20:15;4.50;99.90
22321;DHT22;11328;53.928;18.522;2024-01-25T15:22:42;4.40;99.90
22321;DHT22;11328;53.928;18.522;2024-01-25T15:25:09;4.30;99.90
22321;DHT22;11328;53.928;18.522;2024-01-25T15:27:36;4.40;99.90
22321;DHT22;11328;53.928;18.522;2024-01-25T15:30:04;4.20;99.90
22321;DHT22;11328;53.928;18.522;2024-01-25T15:32:32;4.20;99.90
22321;DHT22;11328;53.928;18.522;2024-01-25T15:34:59;4.20;99.90
22321;DHT22;11328;53.928;18.522;2024-01-25T15:37:27;4.20;99.90